!!! Benutzen Sie für Ihre Flugvorbereitung die offiziellen Quellen !!!

Metar:

EDQM 201150Z 22008KT 9999 SCT013 BKN025 M00/M03 Q1006

QNH: 1006
Temperatur: 0
Dew Point : -3

 

METAR (decoded)